메인 페이지
METAR-TAF:

METAR-TAF

공항 :

Tucumán, 아르헨티나

위도: 26-51S, 경도: 065-06W, 고도: 440m

현재 날씨관측

예보는 36분 전, 07:00시(UTC)에 발표되었습니다.
남서4kt
온도 21°C
습도 100%
기압 1012 hPa
시정: 2000m
고도 200ft 상공 흐림
약한이슬비, 박무

METAR: SANT 010700Z 23004KT 2000 -DZBR OVC002 21/21 Q1012

시각: 04:36 (07:36 UTC)

예보

예보는 2 시간 36분 전, 05:00시(UTC)에 발표되었습니다.
예보 대상 시간: 01일 06시부터 02일 06시까지 (UTC)
여러 방향의 바람 2kt
시정: 3000m
고도 600ft 상공 구름 많음
고도 2500ft 상공 흐림
비, 이슬비, 박무
일시적
01일 08시부터 01일 12시까지 (UTC)
시정: 0800m
고도 300ft 상공 흐림
이슬비, 안개
전환 중
01일 13시부터 01일 15시까지 (UTC)
남동5kt
시정: 8000m
고도 1000ft 상공 구름 많음
고도 2000ft 상공 구름 많음

TAF: SANT 010500Z 0106/0206 VRB02KT 3000 RA DZ BR BKN006 OVC025 TX25/0118Z TN20/0110Z TEMPO 0108/0112 0800 DZ FG OVC003 BECMG 0113/0115 14005KT 8000 BKN010 BKN020

4,000개 이상의 공항 관측 자료 및 예보 (METAR 및 TAF 보고).

지도상에서 검색 가능한 기상관측소가 노란 점과 빨간 점으로 표시되어 있습니다.

기상관측소 명을 보려면 표시 위로 마우스를 이동하세요.

날씨 관측과 예보를 보려면 클릭하세요.

지도 변경 : 확대하려면 엑스 표시가 있는 녹색 버튼, 축소하려면 빼기 표시가 있는 녹색 버튼, 다음 페이지의 지도를 보려면 녹색 화살표를 클릭하세요.


METAR-TAF: